• Join FlightAware (Why Join?)
  • Login
  • US Flag 
03:14AM EDT


 

Airport Tracker/Info


-or-


 

Live Flight TrackerFlight Track Log ✈ N487VC ✈ 14-Apr-2013 ✈ KHPN - KACK

Flight Track Log - Related Links

Times and Time Zones

All times are in EDT time to prevent confusion due to time zone crossing. See the N487VC flight status page for this flight to view local times or setup timezone preferences in your user account.

Time Position Orientation Groundspeed Altitude Reporting Facility
EDT Latitude Longitude Course Direction KTS MPH feet Rate Location/Type
09:31AM 41.0833 -73.7500 360° North 148 170 2,300  Level New York TRACON
09:32AM 41.1167 -73.7500 360° North 177 204 4,200 2,160 Climbing New York TRACON
09:33AM 41.1667 -73.7000 37° Northeast 183 211 6,500 1,380 Climbing New York TRACON
09:34AM 41.2000 -73.6667 37° Northeast 214 246 7,000 1,140 Climbing New York TRACON
09:35AM 41.2667 -73.6000 37° Northeast 234 269 8,900 960 Climbing New York TRACON
09:36AM 41.3000 -73.5333 56° Northeast 253 291 9,000  Climbing New York TRACON
09:37AM 41.3333 -73.4333 66° East 281 323 9,000  Level New York TRACON
09:38AM 41.3667 -73.3333 66° East 284 327 9,000  Level New York TRACON
09:38AM 41.3800 -73.3006 62° Northeast 281 323 9,000  Level Boston Center
09:39AM 41.4078 -73.2206 65° Northeast 283 326 9,000  Level Boston Center
09:40AM 41.4397 -73.1267 66° East 282 325 9,000  Level Boston Center
09:41AM 41.4756 -73.0219 65° Northeast 279 321 9,000  Level Boston Center
09:42AM 41.4969 -72.9222 74° East 284 327 9,000  Level Boston Center
09:43AM 41.5017 -72.8114 87° East 289 333 9,000  Level Boston Center
09:44AM 41.5039 -72.7061 88° East 279 321 9,000  Level Boston Center
09:45AM 41.5103 -72.6064 85° East 281 323 9,000  Level Boston Center
09:46AM 41.5147 -72.5344 85° East 282 325 9,000  Level Boston Center
09:46AM 41.5167 -72.5011 86° East 282 325 9,000  Level Boston Center
09:47AM 41.5231 -72.4094 85° East 282 325 9,000  Level Boston Center
09:48AM 41.4958 -72.3181 112° Southeast 263 303 9,000  Level Boston Center
09:49AM 41.4478 -72.2433 131° Southeast 260 299 9,000  Level Boston Center
09:50AM 41.4122 -72.1522 117° Southeast 279 321 9,000  Level Boston Center
09:51AM 41.3972 -72.0556 102° East 271 312 9,000  Level Boston Center
09:52AM 41.3739 -71.9450 106° East 277 319 9,000  Level Boston Center
09:53AM 41.3567 -71.8428 103° East 280 322 9,000  Level Boston Center
09:54AM 41.3458 -71.7433 98° East 284 327 9,000  Level Boston Center
09:55AM 41.3408 -71.6383 94° East 278 320 9,000  Level Boston Center
09:56AM 41.3361 -71.5389 94° East 273 314 9,000  Level Boston Center
09:58AM 41.3213 -71.4262 100° East  Level FlightAware Approximate
10:05AM 41.2316 -70.7606 96° East  Level FlightAware Approximate
10:06AM 41.2243 -70.6646 96° East  Level FlightAware Approximate
10:07AM 41.2168 -70.5687 96° East  Level FlightAware Approximate
10:08AM 41.2136 -70.4725 98° East  Level FlightAware Approximate
10:09AM 41.2030 -70.3771 98° East  Level FlightAware Approximate
10:10AM 41.2000 -70.2809 90° East  Level FlightAware Approximate
10:11AM 41.2220 -70.1898 69° East  Level FlightAware Approximate
10:12AM 41.2421 -70.0974 77° East  Level FlightAware Approximate
10:13AM 41.2500 -70.0500 77° East  Level FlightAware Approximate
10:14AM 41.2531 -70.0603 77° East  Level Estimated
10:15AM 41.2531 -70.0603 77° East  Level Estimated
10:16AM 41.2531 -70.0603 77° East  Level Estimated
10:17AM 41.2531 -70.0603 77° East  Level Estimated
10:18AM 41.2531 -70.0603 77° East  Level Estimated
10:19AM 41.2531 -70.0603 77° East  Level Estimated
10:20AM 41.2531 -70.0603 77° East  Level Estimated
10:21AM 41.2531 -70.0603 77° East  Level Estimated
10:22AM 41.2531 -70.0603 77° East  Level Estimated